sensor_id;sensor_type;location;lat;lon;timestamp;P1;durP1;ratioP1;P2;durP2;ratioP2
6388;SDS011;3227;42.654;23.360;2023-07-31T00:01:53;5.63;;;3.30;;
6388;SDS011;3227;42.654;23.360;2023-07-31T00:04:20;5.03;;;2.95;;
6388;SDS011;3227;42.654;23.360;2023-07-31T00:06:47;6.53;;;3.60;;
6388;SDS011;3227;42.654;23.360;2023-07-31T00:09:15;5.03;;;3.10;;
6388;SDS011;3227;42.654;23.360;2023-07-31T00:11:42;6.32;;;3.22;;
6388;SDS011;3227;42.654;23.360;2023-07-31T00:14:08;5.22;;;3.15;;
6388;SDS011;3227;42.654;23.360;2023-07-31T00:16:35;5.00;;;3.15;;
6388;SDS011;3227;42.654;23.360;2023-07-31T00:19:02;5.72;;;3.35;;
6388;SDS011;3227;42.654;23.360;2023-07-31T00:21:29;8.20;;;3.50;;
6388;SDS011;3227;42.654;23.360;2023-07-31T00:23:55;5.60;;;3.38;;
6388;SDS011;3227;42.654;23.360;2023-07-31T00:26:24;6.88;;;3.75;;
6388;SDS011;3227;42.654;23.360;2023-07-31T00:28:50;8.43;;;3.38;;
6388;SDS011;3227;42.654;23.360;2023-07-31T00:31:17;5.35;;;3.38;;
6388;SDS011;3227;42.654;23.360;2023-07-31T00:33:44;6.28;;;3.60;;
6388;SDS011;3227;42.654;23.360;2023-07-31T00:36:10;6.90;;;3.70;;
6388;SDS011;3227;42.654;23.360;2023-07-31T00:38:37;5.97;;;3.78;;
6388;SDS011;3227;42.654;23.360;2023-07-31T00:41:04;6.93;;;3.88;;
6388;SDS011;3227;42.654;23.360;2023-07-31T00:43:32;6.80;;;3.70;;
6388;SDS011;3227;42.654;23.360;2023-07-31T00:45:59;6.00;;;3.60;;
6388;SDS011;3227;42.654;23.360;2023-07-31T00:48:27;6.15;;;3.33;;
6388;SDS011;3227;42.654;23.360;2023-07-31T00:50:54;6.15;;;3.92;;
6388;SDS011;3227;42.654;23.360;2023-07-31T00:53:21;7.00;;;4.07;;
6388;SDS011;3227;42.654;23.360;2023-07-31T00:55:48;8.93;;;4.53;;
6388;SDS011;3227;42.654;23.360;2023-07-31T00:58:15;7.25;;;4.65;;
6388;SDS011;3227;42.654;23.360;2023-07-31T01:00:43;7.82;;;5.10;;
6388;SDS011;3227;42.654;23.360;2023-07-31T01:03:10;7.47;;;5.50;;
6388;SDS011;3227;42.654;23.360;2023-07-31T01:05:43;7.30;;;5.28;;
6388;SDS011;3227;42.654;23.360;2023-07-31T01:08:15;10.40;;;5.90;;
6388;SDS011;3227;42.654;23.360;2023-07-31T01:10:52;8.23;;;5.35;;
6388;SDS011;3227;42.654;23.360;2023-07-31T01:13:22;8.13;;;5.60;;
6388;SDS011;3227;42.654;23.360;2023-07-31T01:15:51;8.02;;;5.82;;
6388;SDS011;3227;42.654;23.360;2023-07-31T01:18:18;8.27;;;5.82;;
6388;SDS011;3227;42.654;23.360;2023-07-31T01:20:44;9.05;;;6.75;;
6388;SDS011;3227;42.654;23.360;2023-07-31T01:23:24;8.88;;;6.40;;
6388;SDS011;3227;42.654;23.360;2023-07-31T01:26:07;9.63;;;7.15;;
6388;SDS011;3227;42.654;23.360;2023-07-31T01:28:42;10.75;;;7.22;;
6388;SDS011;3227;42.654;23.360;2023-07-31T01:31:14;10.40;;;6.97;;
6388;SDS011;3227;42.654;23.360;2023-07-31T01:33:44;10.50;;;7.63;;
6388;SDS011;3227;42.654;23.360;2023-07-31T01:36:12;10.82;;;8.45;;
6388;SDS011;3227;42.654;23.360;2023-07-31T01:38:39;12.57;;;9.55;;
6388;SDS011;3227;42.654;23.360;2023-07-31T01:41:07;13.63;;;10.30;;
6388;SDS011;3227;42.654;23.360;2023-07-31T01:43:34;12.55;;;10.05;;
6388;SDS011;3227;42.654;23.360;2023-07-31T01:46:01;13.60;;;11.57;;
6388;SDS011;3227;42.654;23.360;2023-07-31T01:48:27;13.73;;;11.90;;
6388;SDS011;3227;42.654;23.360;2023-07-31T01:51:00;16.38;;;13.00;;
6388;SDS011;3227;42.654;23.360;2023-07-31T01:53:27;17.00;;;13.75;;
6388;SDS011;3227;42.654;23.360;2023-07-31T01:55:54;17.02;;;14.18;;
6388;SDS011;3227;42.654;23.360;2023-07-31T01:58:22;17.52;;;14.32;;
6388;SDS011;3227;42.654;23.360;2023-07-31T02:00:49;18.05;;;14.77;;
6388;SDS011;3227;42.654;23.360;2023-07-31T02:03:15;19.48;;;16.05;;
6388;SDS011;3227;42.654;23.360;2023-07-31T02:05:44;19.92;;;15.60;;
6388;SDS011;3227;42.654;23.360;2023-07-31T02:08:11;19.85;;;16.35;;
6388;SDS011;3227;42.654;23.360;2023-07-31T02:10:37;20.02;;;16.08;;
6388;SDS011;3227;42.654;23.360;2023-07-31T02:13:04;19.80;;;15.50;;
6388;SDS011;3227;42.654;23.360;2023-07-31T02:15:32;19.75;;;16.10;;
6388;SDS011;3227;42.654;23.360;2023-07-31T02:17:59;19.17;;;15.95;;
6388;SDS011;3227;42.654;23.360;2023-07-31T02:20:26;19.20;;;16.50;;
6388;SDS011;3227;42.654;23.360;2023-07-31T02:22:52;20.38;;;16.88;;
6388;SDS011;3227;42.654;23.360;2023-07-31T02:25:19;18.20;;;15.68;;
6388;SDS011;3227;42.654;23.360;2023-07-31T02:27:46;18.60;;;15.80;;
6388;SDS011;3227;42.654;23.360;2023-07-31T02:30:13;19.58;;;16.40;;
6388;SDS011;3227;42.654;23.360;2023-07-31T02:32:41;19.63;;;16.02;;
6388;SDS011;3227;42.654;23.360;2023-07-31T02:35:08;21.00;;;16.80;;
6388;SDS011;3227;42.654;23.360;2023-07-31T02:37:36;17.67;;;15.77;;
6388;SDS011;3227;42.654;23.360;2023-07-31T02:40:04;19.70;;;16.48;;
6388;SDS011;3227;42.654;23.360;2023-07-31T02:42:31;19.80;;;16.63;;
6388;SDS011;3227;42.654;23.360;2023-07-31T02:44:58;22.65;;;17.98;;
6388;SDS011;3227;42.654;23.360;2023-07-31T02:47:25;19.17;;;16.35;;
6388;SDS011;3227;42.654;23.360;2023-07-31T02:49:53;19.98;;;17.05;;
6388;SDS011;3227;42.654;23.360;2023-07-31T02:52:21;21.50;;;16.85;;
6388;SDS011;3227;42.654;23.360;2023-07-31T02:54:47;20.00;;;16.48;;
6388;SDS011;3227;42.654;23.360;2023-07-31T02:57:14;20.42;;;16.23;;
6388;SDS011;3227;42.654;23.360;2023-07-31T02:59:41;19.77;;;16.50;;
6388;SDS011;3227;42.654;23.360;2023-07-31T03:02:08;20.70;;;17.20;;
6388;SDS011;3227;42.654;23.360;2023-07-31T03:04:35;20.48;;;16.90;;
6388;SDS011;3227;42.654;23.360;2023-07-31T03:07:04;23.15;;;17.70;;
6388;SDS011;3227;42.654;23.360;2023-07-31T03:09:31;19.95;;;17.27;;
6388;SDS011;3227;42.654;23.360;2023-07-31T03:11:58;19.73;;;17.13;;
6388;SDS011;3227;42.654;23.360;2023-07-31T03:14:24;22.60;;;17.48;;
6388;SDS011;3227;42.654;23.360;2023-07-31T03:16:51;19.77;;;16.80;;
6388;SDS011;3227;42.654;23.360;2023-07-31T03:19:18;21.67;;;17.70;;
6388;SDS011;3227;42.654;23.360;2023-07-31T03:21:45;19.08;;;16.42;;
6388;SDS011;3227;42.654;23.360;2023-07-31T03:24:13;20.20;;;16.33;;
6388;SDS011;3227;42.654;23.360;2023-07-31T03:26:40;21.02;;;17.17;;
6388;SDS011;3227;42.654;23.360;2023-07-31T03:29:07;20.80;;;17.08;;
6388;SDS011;3227;42.654;23.360;2023-07-31T03:31:34;21.77;;;18.35;;
6388;SDS011;3227;42.654;23.360;2023-07-31T03:34:01;21.33;;;16.52;;
6388;SDS011;3227;42.654;23.360;2023-07-31T03:36:27;20.90;;;17.80;;
6388;SDS011;3227;42.654;23.360;2023-07-31T03:38:54;23.77;;;18.55;;
6388;SDS011;3227;42.654;23.360;2023-07-31T03:41:22;22.17;;;18.27;;
6388;SDS011;3227;42.654;23.360;2023-07-31T03:43:49;24.88;;;18.98;;
6388;SDS011;3227;42.654;23.360;2023-07-31T03:46:17;23.25;;;17.65;;
6388;SDS011;3227;42.654;23.360;2023-07-31T03:48:44;22.00;;;18.10;;
6388;SDS011;3227;42.654;23.360;2023-07-31T03:51:11;22.45;;;18.27;;
6388;SDS011;3227;42.654;23.360;2023-07-31T03:53:37;21.35;;;17.55;;
6388;SDS011;3227;42.654;23.360;2023-07-31T03:56:04;22.00;;;18.10;;
6388;SDS011;3227;42.654;23.360;2023-07-31T03:58:32;21.50;;;17.63;;
6388;SDS011;3227;42.654;23.360;2023-07-31T04:01:00;23.70;;;19.08;;
6388;SDS011;3227;42.654;23.360;2023-07-31T04:03:27;26.80;;;18.60;;
6388;SDS011;3227;42.654;23.360;2023-07-31T04:05:53;22.90;;;19.67;;
6388;SDS011;3227;42.654;23.360;2023-07-31T04:08:21;24.45;;;19.70;;
6388;SDS011;3227;42.654;23.360;2023-07-31T04:10:48;25.65;;;20.20;;
6388;SDS011;3227;42.654;23.360;2023-07-31T04:13:15;25.50;;;19.15;;
6388;SDS011;3227;42.654;23.360;2023-07-31T04:15:43;26.83;;;19.45;;
6388;SDS011;3227;42.654;23.360;2023-07-31T04:18:15;23.42;;;19.25;;
6388;SDS011;3227;42.654;23.360;2023-07-31T04:20:41;24.90;;;19.48;;
6388;SDS011;3227;42.654;23.360;2023-07-31T04:23:08;23.33;;;19.52;;
6388;SDS011;3227;42.654;23.360;2023-07-31T04:25:35;22.48;;;18.25;;
6388;SDS011;3227;42.654;23.360;2023-07-31T04:28:01;24.85;;;20.70;;
6388;SDS011;3227;42.654;23.360;2023-07-31T04:30:28;24.33;;;19.48;;
6388;SDS011;3227;42.654;23.360;2023-07-31T04:32:56;24.65;;;18.95;;
6388;SDS011;3227;42.654;23.360;2023-07-31T04:35:23;25.70;;;18.33;;
6388;SDS011;3227;42.654;23.360;2023-07-31T04:37:50;23.42;;;18.58;;
6388;SDS011;3227;42.654;23.360;2023-07-31T04:40:17;24.40;;;18.58;;
6388;SDS011;3227;42.654;23.360;2023-07-31T04:42:43;23.88;;;18.88;;
6388;SDS011;3227;42.654;23.360;2023-07-31T04:45:11;23.33;;;18.65;;
6388;SDS011;3227;42.654;23.360;2023-07-31T04:47:38;23.40;;;17.88;;
6388;SDS011;3227;42.654;23.360;2023-07-31T04:50:06;22.27;;;18.45;;
6388;SDS011;3227;42.654;23.360;2023-07-31T04:52:34;23.90;;;19.75;;
6388;SDS011;3227;42.654;23.360;2023-07-31T04:55:00;23.38;;;17.73;;
6388;SDS011;3227;42.654;23.360;2023-07-31T04:57:28;21.45;;;18.17;;
6388;SDS011;3227;42.654;23.360;2023-07-31T04:59:54;23.42;;;17.88;;
6388;SDS011;3227;42.654;23.360;2023-07-31T05:02:21;25.38;;;18.58;;
6388;SDS011;3227;42.654;23.360;2023-07-31T05:04:49;22.60;;;18.17;;
6388;SDS011;3227;42.654;23.360;2023-07-31T05:07:17;22.60;;;17.70;;
6388;SDS011;3227;42.654;23.360;2023-07-31T05:09:44;21.80;;;17.38;;
6388;SDS011;3227;42.654;23.360;2023-07-31T05:12:11;22.17;;;17.52;;
6388;SDS011;3227;42.654;23.360;2023-07-31T05:14:38;19.50;;;16.08;;
6388;SDS011;3227;42.654;23.360;2023-07-31T05:17:05;20.10;;;16.90;;
6388;SDS011;3227;42.654;23.360;2023-07-31T05:19:31;20.10;;;16.70;;
6388;SDS011;3227;42.654;23.360;2023-07-31T05:21:58;19.65;;;16.40;;
6388;SDS011;3227;42.654;23.360;2023-07-31T05:24:26;19.88;;;15.77;;
6388;SDS011;3227;42.654;23.360;2023-07-31T05:26:53;19.05;;;16.45;;
6388;SDS011;3227;42.654;23.360;2023-07-31T05:29:20;17.58;;;15.05;;
6388;SDS011;3227;42.654;23.360;2023-07-31T05:31:46;19.00;;;15.90;;
6388;SDS011;3227;42.654;23.360;2023-07-31T05:34:13;17.65;;;13.77;;
6388;SDS011;3227;42.654;23.360;2023-07-31T05:36:40;16.88;;;14.25;;
6388;SDS011;3227;42.654;23.360;2023-07-31T05:39:07;18.10;;;14.13;;
6388;SDS011;3227;42.654;23.360;2023-07-31T05:41:35;18.30;;;14.50;;
6388;SDS011;3227;42.654;23.360;2023-07-31T05:44:02;16.83;;;13.85;;
6388;SDS011;3227;42.654;23.360;2023-07-31T05:46:29;15.70;;;11.65;;
6388;SDS011;3227;42.654;23.360;2023-07-31T05:48:56;14.55;;;12.10;;
6388;SDS011;3227;42.654;23.360;2023-07-31T05:51:25;14.65;;;11.63;;
6388;SDS011;3227;42.654;23.360;2023-07-31T05:53:51;13.10;;;10.95;;
6388;SDS011;3227;42.654;23.360;2023-07-31T05:56:18;17.48;;;11.98;;
6388;SDS011;3227;42.654;23.360;2023-07-31T05:58:46;11.98;;;9.10;;
6388;SDS011;3227;42.654;23.360;2023-07-31T06:01:14;13.32;;;9.85;;
6388;SDS011;3227;42.654;23.360;2023-07-31T06:03:42;11.15;;;9.60;;
6388;SDS011;3227;42.654;23.360;2023-07-31T06:06:08;14.68;;;9.50;;
6388;SDS011;3227;42.654;23.360;2023-07-31T06:08:36;11.98;;;9.40;;
6388;SDS011;3227;42.654;23.360;2023-07-31T06:11:02;12.95;;;8.38;;
6388;SDS011;3227;42.654;23.360;2023-07-31T06:13:29;12.87;;;8.83;;
6388;SDS011;3227;42.654;23.360;2023-07-31T06:15:57;13.18;;;9.10;;
6388;SDS011;3227;42.654;23.360;2023-07-31T06:18:25;9.35;;;6.90;;
6388;SDS011;3227;42.654;23.360;2023-07-31T06:20:52;9.57;;;6.60;;
6388;SDS011;3227;42.654;23.360;2023-07-31T06:23:19;10.82;;;7.05;;
6388;SDS011;3227;42.654;23.360;2023-07-31T06:25:45;10.45;;;6.40;;
6388;SDS011;3227;42.654;23.360;2023-07-31T06:28:12;9.52;;;5.95;;
6388;SDS011;3227;42.654;23.360;2023-07-31T06:30:39;7.85;;;5.43;;
6388;SDS011;3227;42.654;23.360;2023-07-31T06:33:07;8.85;;;5.65;;
6388;SDS011;3227;42.654;23.360;2023-07-31T06:35:34;7.88;;;5.13;;
6388;SDS011;3227;42.654;23.360;2023-07-31T06:38:01;8.02;;;5.18;;
6388;SDS011;3227;42.654;23.360;2023-07-31T06:40:28;7.75;;;4.90;;
6388;SDS011;3227;42.654;23.360;2023-07-31T06:42:55;7.63;;;4.65;;
6388;SDS011;3227;42.654;23.360;2023-07-31T06:45:22;7.57;;;4.72;;
6388;SDS011;3227;42.654;23.360;2023-07-31T06:47:49;6.10;;;4.00;;
6388;SDS011;3227;42.654;23.360;2023-07-31T06:50:20;8.85;;;4.65;;
6388;SDS011;3227;42.654;23.360;2023-07-31T06:52:46;10.02;;;4.95;;
6388;SDS011;3227;42.654;23.360;2023-07-31T06:55:16;6.43;;;4.32;;
6388;SDS011;3227;42.654;23.360;2023-07-31T06:57:44;7.97;;;4.40;;
6388;SDS011;3227;42.654;23.360;2023-07-31T07:00:13;8.07;;;4.60;;
6388;SDS011;3227;42.654;23.360;2023-07-31T07:02:40;13.52;;;4.25;;
6388;SDS011;3227;42.654;23.360;2023-07-31T07:05:07;6.40;;;4.30;;
6388;SDS011;3227;42.654;23.360;2023-07-31T07:07:36;9.13;;;4.60;;
6388;SDS011;3227;42.654;23.360;2023-07-31T07:10:04;6.05;;;4.20;;
6388;SDS011;3227;42.654;23.360;2023-07-31T07:12:31;7.22;;;4.10;;
6388;SDS011;3227;42.654;23.360;2023-07-31T07:14:59;8.20;;;4.20;;
6388;SDS011;3227;42.654;23.360;2023-07-31T07:17:27;9.88;;;4.10;;
6388;SDS011;3227;42.654;23.360;2023-07-31T07:19:57;7.88;;;4.15;;
6388;SDS011;3227;42.654;23.360;2023-07-31T07:22:24;6.10;;;3.65;;
6388;SDS011;3227;42.654;23.360;2023-07-31T07:24:53;7.85;;;3.97;;
6388;SDS011;3227;42.654;23.360;2023-07-31T07:27:20;8.80;;;3.90;;
6388;SDS011;3227;42.654;23.360;2023-07-31T07:29:46;6.35;;;3.70;;
6388;SDS011;3227;42.654;23.360;2023-07-31T07:32:13;6.30;;;4.00;;
6388;SDS011;3227;42.654;23.360;2023-07-31T07:34:40;7.38;;;3.83;;
6388;SDS011;3227;42.654;23.360;2023-07-31T07:37:07;5.63;;;3.38;;
6388;SDS011;3227;42.654;23.360;2023-07-31T07:39:34;6.15;;;3.50;;
6388;SDS011;3227;42.654;23.360;2023-07-31T07:42:02;6.57;;;3.80;;
6388;SDS011;3227;42.654;23.360;2023-07-31T07:44:29;6.38;;;3.83;;
6388;SDS011;3227;42.654;23.360;2023-07-31T07:46:56;6.22;;;3.90;;
6388;SDS011;3227;42.654;23.360;2023-07-31T07:49:22;6.60;;;4.50;;
6388;SDS011;3227;42.654;23.360;2023-07-31T07:51:49;7.20;;;3.63;;
6388;SDS011;3227;42.654;23.360;2023-07-31T07:54:16;8.05;;;4.20;;
6388;SDS011;3227;42.654;23.360;2023-07-31T07:56:43;8.90;;;4.10;;
6388;SDS011;3227;42.654;23.360;2023-07-31T07:59:11;7.00;;;4.15;;
6388;SDS011;3227;42.654;23.360;2023-07-31T08:01:37;8.50;;;3.80;;
6388;SDS011;3227;42.654;23.360;2023-07-31T08:04:04;6.30;;;3.63;;
6388;SDS011;3227;42.654;23.360;2023-07-31T08:06:31;8.18;;;3.20;;
6388;SDS011;3227;42.654;23.360;2023-07-31T08:08:59;6.53;;;3.20;;
6388;SDS011;3227;42.654;23.360;2023-07-31T08:11:30;8.00;;;3.60;;
6388;SDS011;3227;42.654;23.360;2023-07-31T08:13:57;6.25;;;3.15;;
6388;SDS011;3227;42.654;23.360;2023-07-31T08:16:25;5.50;;;3.30;;
6388;SDS011;3227;42.654;23.360;2023-07-31T08:18:52;6.13;;;3.55;;
6388;SDS011;3227;42.654;23.360;2023-07-31T08:21:19;9.65;;;3.92;;
6388;SDS011;3227;42.654;23.360;2023-07-31T08:23:45;8.13;;;3.88;;
6388;SDS011;3227;42.654;23.360;2023-07-31T08:26:14;8.05;;;4.10;;
6388;SDS011;3227;42.654;23.360;2023-07-31T08:28:41;9.10;;;5.05;;
6388;SDS011;3227;42.654;23.360;2023-07-31T08:31:08;8.32;;;3.90;;
6388;SDS011;3227;42.654;23.360;2023-07-31T08:33:37;7.05;;;3.60;;
6388;SDS011;3227;42.654;23.360;2023-07-31T08:36:09;8.25;;;3.55;;
6388;SDS011;3227;42.654;23.360;2023-07-31T08:38:35;7.10;;;3.85;;
6388;SDS011;3227;42.654;23.360;2023-07-31T08:41:03;8.18;;;5.20;;
6388;SDS011;3227;42.654;23.360;2023-07-31T08:43:30;6.47;;;4.35;;
6388;SDS011;3227;42.654;23.360;2023-07-31T08:45:57;7.97;;;4.25;;
6388;SDS011;3227;42.654;23.360;2023-07-31T08:48:24;10.23;;;5.07;;
6388;SDS011;3227;42.654;23.360;2023-07-31T08:50:53;6.18;;;3.70;;
6388;SDS011;3227;42.654;23.360;2023-07-31T08:53:20;8.10;;;4.20;;
6388;SDS011;3227;42.654;23.360;2023-07-31T08:55:47;8.07;;;3.70;;
6388;SDS011;3227;42.654;23.360;2023-07-31T08:58:15;8.20;;;3.60;;
6388;SDS011;3227;42.654;23.360;2023-07-31T09:00:43;7.38;;;3.92;;
6388;SDS011;3227;42.654;23.360;2023-07-31T09:03:13;7.15;;;3.60;;
6388;SDS011;3227;42.654;23.360;2023-07-31T09:05:42;5.68;;;3.47;;
6388;SDS011;3227;42.654;23.360;2023-07-31T09:08:12;5.45;;;3.58;;
6388;SDS011;3227;42.654;23.360;2023-07-31T09:10:42;6.28;;;3.55;;
6388;SDS011;3227;42.654;23.360;2023-07-31T09:13:11;7.55;;;3.28;;
6388;SDS011;3227;42.654;23.360;2023-07-31T09:15:38;5.85;;;3.33;;
6388;SDS011;3227;42.654;23.360;2023-07-31T09:18:06;9.85;;;3.83;;
6388;SDS011;3227;42.654;23.360;2023-07-31T09:20:33;6.97;;;3.08;;
6388;SDS011;3227;42.654;23.360;2023-07-31T09:23:07;5.90;;;3.30;;
6388;SDS011;3227;42.654;23.360;2023-07-31T09:25:36;8.70;;;2.95;;
6388;SDS011;3227;42.654;23.360;2023-07-31T09:28:04;5.63;;;3.40;;
6388;SDS011;3227;42.654;23.360;2023-07-31T09:30:43;5.35;;;3.13;;
6388;SDS011;3227;42.654;23.360;2023-07-31T09:33:12;5.80;;;3.47;;
6388;SDS011;3227;42.654;23.360;2023-07-31T09:35:39;6.07;;;3.28;;
6388;SDS011;3227;42.654;23.360;2023-07-31T09:38:07;6.60;;;3.50;;
6388;SDS011;3227;42.654;23.360;2023-07-31T09:40:35;6.95;;;3.40;;
6388;SDS011;3227;42.654;23.360;2023-07-31T09:43:05;10.80;;;3.67;;
6388;SDS011;3227;42.654;23.360;2023-07-31T09:45:33;7.53;;;3.50;;
6388;SDS011;3227;42.654;23.360;2023-07-31T09:48:02;10.57;;;3.60;;
6388;SDS011;3227;42.654;23.360;2023-07-31T09:50:29;6.20;;;3.50;;
6388;SDS011;3227;42.654;23.360;2023-07-31T09:52:56;7.18;;;3.58;;
6388;SDS011;3227;42.654;23.360;2023-07-31T09:55:23;10.02;;;3.95;;
6388;SDS011;3227;42.654;23.360;2023-07-31T09:57:52;6.78;;;3.85;;
6388;SDS011;3227;42.654;23.360;2023-07-31T10:00:23;6.40;;;3.38;;
6388;SDS011;3227;42.654;23.360;2023-07-31T10:02:52;7.95;;;3.63;;
6388;SDS011;3227;42.654;23.360;2023-07-31T10:05:20;8.23;;;3.78;;
6388;SDS011;3227;42.654;23.360;2023-07-31T10:07:49;9.18;;;5.50;;
6388;SDS011;3227;42.654;23.360;2023-07-31T10:10:19;6.95;;;3.30;;
6388;SDS011;3227;42.654;23.360;2023-07-31T10:12:47;7.00;;;3.40;;
6388;SDS011;3227;42.654;23.360;2023-07-31T10:15:17;6.10;;;3.55;;
6388;SDS011;3227;42.654;23.360;2023-07-31T10:17:45;6.30;;;3.53;;
6388;SDS011;3227;42.654;23.360;2023-07-31T10:20:14;8.63;;;4.70;;
6388;SDS011;3227;42.654;23.360;2023-07-31T10:22:42;6.72;;;3.80;;
6388;SDS011;3227;42.654;23.360;2023-07-31T10:25:11;8.23;;;4.00;;
6388;SDS011;3227;42.654;23.360;2023-07-31T10:27:38;7.18;;;3.17;;
6388;SDS011;3227;42.654;23.360;2023-07-31T10:30:06;5.15;;;3.00;;
6388;SDS011;3227;42.654;23.360;2023-07-31T10:32:38;8.27;;;4.18;;
6388;SDS011;3227;42.654;23.360;2023-07-31T10:35:08;7.60;;;4.45;;
6388;SDS011;3227;42.654;23.360;2023-07-31T10:37:36;7.80;;;3.75;;
6388;SDS011;3227;42.654;23.360;2023-07-31T10:40:05;5.57;;;2.70;;
6388;SDS011;3227;42.654;23.360;2023-07-31T10:42:33;4.75;;;2.75;;
6388;SDS011;3227;42.654;23.360;2023-07-31T10:45:02;9.27;;;3.65;;
6388;SDS011;3227;42.654;23.360;2023-07-31T10:47:31;4.43;;;2.75;;
6388;SDS011;3227;42.654;23.360;2023-07-31T10:50:16;8.45;;;4.22;;
6388;SDS011;3227;42.654;23.360;2023-07-31T10:52:48;5.72;;;3.03;;
6388;SDS011;3227;42.654;23.360;2023-07-31T10:55:22;5.72;;;3.35;;
6388;SDS011;3227;42.654;23.360;2023-07-31T10:57:50;6.88;;;3.10;;
6388;SDS011;3227;42.654;23.360;2023-07-31T11:00:18;4.57;;;2.70;;
6388;SDS011;3227;42.654;23.360;2023-07-31T11:02:55;5.03;;;2.40;;
6388;SDS011;3227;42.654;23.360;2023-07-31T11:05:24;8.40;;;3.35;;
6388;SDS011;3227;42.654;23.360;2023-07-31T11:08:10;6.03;;;3.08;;
6388;SDS011;3227;42.654;23.360;2023-07-31T11:10:38;5.95;;;2.78;;
6388;SDS011;3227;42.654;23.360;2023-07-31T11:13:04;8.05;;;2.67;;
6388;SDS011;3227;42.654;23.360;2023-07-31T11:15:31;7.00;;;2.83;;
6388;SDS011;3227;42.654;23.360;2023-07-31T11:17:59;4.97;;;2.90;;
6388;SDS011;3227;42.654;23.360;2023-07-31T11:20:30;7.32;;;2.58;;
6388;SDS011;3227;42.654;23.360;2023-07-31T11:22:58;4.85;;;2.60;;
6388;SDS011;3227;42.654;23.360;2023-07-31T11:25:26;5.20;;;2.75;;
6388;SDS011;3227;42.654;23.360;2023-07-31T11:27:55;5.15;;;2.72;;
6388;SDS011;3227;42.654;23.360;2023-07-31T11:30:22;6.13;;;2.70;;
6388;SDS011;3227;42.654;23.360;2023-07-31T11:32:49;5.10;;;2.53;;
6388;SDS011;3227;42.654;23.360;2023-07-31T11:35:16;6.22;;;2.65;;
6388;SDS011;3227;42.654;23.360;2023-07-31T11:37:44;4.85;;;2.50;;
6388;SDS011;3227;42.654;23.360;2023-07-31T11:40:11;4.93;;;2.90;;
6388;SDS011;3227;42.654;23.360;2023-07-31T11:42:38;5.50;;;2.53;;
6388;SDS011;3227;42.654;23.360;2023-07-31T11:45:05;8.23;;;2.80;;
6388;SDS011;3227;42.654;23.360;2023-07-31T11:47:33;6.27;;;2.80;;
6388;SDS011;3227;42.654;23.360;2023-07-31T11:50:01;4.95;;;2.50;;
6388;SDS011;3227;42.654;23.360;2023-07-31T11:52:28;7.20;;;2.92;;
6388;SDS011;3227;42.654;23.360;2023-07-31T11:54:59;6.30;;;3.33;;
6388;SDS011;3227;42.654;23.360;2023-07-31T11:57:26;4.82;;;2.72;;
6388;SDS011;3227;42.654;23.360;2023-07-31T11:59:55;4.65;;;2.83;;
6388;SDS011;3227;42.654;23.360;2023-07-31T12:02:23;5.72;;;3.20;;
6388;SDS011;3227;42.654;23.360;2023-07-31T12:04:50;5.50;;;3.10;;
6388;SDS011;3227;42.654;23.360;2023-07-31T12:07:16;5.57;;;2.70;;
6388;SDS011;3227;42.654;23.360;2023-07-31T12:09:53;5.20;;;3.05;;
6388;SDS011;3227;42.654;23.360;2023-07-31T12:12:22;5.78;;;2.90;;
6388;SDS011;3227;42.654;23.360;2023-07-31T12:14:49;4.20;;;2.70;;
6388;SDS011;3227;42.654;23.360;2023-07-31T12:17:17;5.63;;;3.20;;
6388;SDS011;3227;42.654;23.360;2023-07-31T12:19:45;7.05;;;3.53;;
6388;SDS011;3227;42.654;23.360;2023-07-31T12:22:12;5.90;;;3.60;;
6388;SDS011;3227;42.654;23.360;2023-07-31T12:24:39;7.97;;;3.60;;
6388;SDS011;3227;42.654;23.360;2023-07-31T12:27:09;8.38;;;3.60;;
6388;SDS011;3227;42.654;23.360;2023-07-31T12:29:38;8.98;;;4.13;;
6388;SDS011;3227;42.654;23.360;2023-07-31T12:32:18;7.90;;;4.82;;
6388;SDS011;3227;42.654;23.360;2023-07-31T12:34:51;8.85;;;5.32;;
6388;SDS011;3227;42.654;23.360;2023-07-31T12:37:18;8.93;;;5.35;;
6388;SDS011;3227;42.654;23.360;2023-07-31T12:39:44;9.27;;;5.57;;
6388;SDS011;3227;42.654;23.360;2023-07-31T12:42:11;7.35;;;5.00;;
6388;SDS011;3227;42.654;23.360;2023-07-31T12:44:39;7.60;;;4.80;;
6388;SDS011;3227;42.654;23.360;2023-07-31T12:47:06;9.02;;;4.88;;
6388;SDS011;3227;42.654;23.360;2023-07-31T12:49:33;9.93;;;4.60;;
6388;SDS011;3227;42.654;23.360;2023-07-31T12:51:59;8.05;;;4.35;;
6388;SDS011;3227;42.654;23.360;2023-07-31T12:54:26;8.43;;;4.38;;
6388;SDS011;3227;42.654;23.360;2023-07-31T12:56:53;6.93;;;4.32;;
6388;SDS011;3227;42.654;23.360;2023-07-31T12:59:20;6.88;;;4.47;;
6388;SDS011;3227;42.654;23.360;2023-07-31T13:01:48;7.72;;;4.40;;
6388;SDS011;3227;42.654;23.360;2023-07-31T13:04:14;8.95;;;4.88;;
6388;SDS011;3227;42.654;23.360;2023-07-31T13:06:41;8.32;;;5.22;;
6388;SDS011;3227;42.654;23.360;2023-07-31T13:09:08;7.68;;;5.35;;
6388;SDS011;3227;42.654;23.360;2023-07-31T13:11:36;7.82;;;5.20;;
6388;SDS011;3227;42.654;23.360;2023-07-31T13:14:02;8.02;;;5.43;;
6388;SDS011;3227;42.654;23.360;2023-07-31T13:16:29;7.95;;;5.22;;
6388;SDS011;3227;42.654;23.360;2023-07-31T13:18:57;7.07;;;5.30;;
6388;SDS011;3227;42.654;23.360;2023-07-31T13:21:24;7.68;;;5.40;;
6388;SDS011;3227;42.654;23.360;2023-07-31T13:23:51;8.68;;;5.38;;
6388;SDS011;3227;42.654;23.360;2023-07-31T13:26:17;8.30;;;5.10;;
6388;SDS011;3227;42.654;23.360;2023-07-31T13:28:44;10.63;;;6.13;;
6388;SDS011;3227;42.654;23.360;2023-07-31T13:31:11;9.48;;;6.50;;
6388;SDS011;3227;42.654;23.360;2023-07-31T13:33:37;7.82;;;4.78;;
6388;SDS011;3227;42.654;23.360;2023-07-31T13:36:06;8.23;;;4.80;;
6388;SDS011;3227;42.654;23.360;2023-07-31T13:38:32;8.20;;;5.05;;
6388;SDS011;3227;42.654;23.360;2023-07-31T13:40:59;10.57;;;4.88;;
6388;SDS011;3227;42.654;23.360;2023-07-31T13:43:26;8.02;;;4.80;;
6388;SDS011;3227;42.654;23.360;2023-07-31T13:45:53;8.50;;;5.43;;
6388;SDS011;3227;42.654;23.360;2023-07-31T13:48:19;8.52;;;4.60;;
6388;SDS011;3227;42.654;23.360;2023-07-31T13:50:46;10.13;;;4.47;;
6388;SDS011;3227;42.654;23.360;2023-07-31T13:53:14;6.88;;;4.63;;
6388;SDS011;3227;42.654;23.360;2023-07-31T13:55:41;8.73;;;4.40;;
6388;SDS011;3227;42.654;23.360;2023-07-31T13:58:10;8.18;;;4.43;;
6388;SDS011;3227;42.654;23.360;2023-07-31T14:00:37;9.52;;;4.70;;
6388;SDS011;3227;42.654;23.360;2023-07-31T14:03:04;8.82;;;5.35;;
6388;SDS011;3227;42.654;23.360;2023-07-31T14:05:30;7.20;;;4.75;;
6388;SDS011;3227;42.654;23.360;2023-07-31T14:07:57;7.97;;;4.10;;
6388;SDS011;3227;42.654;23.360;2023-07-31T14:10:25;7.28;;;4.05;;
6388;SDS011;3227;42.654;23.360;2023-07-31T14:12:52;7.95;;;4.32;;
6388;SDS011;3227;42.654;23.360;2023-07-31T14:15:19;6.50;;;4.43;;
6388;SDS011;3227;42.654;23.360;2023-07-31T14:17:45;6.65;;;4.55;;
6388;SDS011;3227;42.654;23.360;2023-07-31T14:20:12;8.32;;;4.07;;
6388;SDS011;3227;42.654;23.360;2023-07-31T14:22:39;9.27;;;4.72;;
6388;SDS011;3227;42.654;23.360;2023-07-31T14:25:06;11.75;;;4.40;;
6388;SDS011;3227;42.654;23.360;2023-07-31T14:27:36;7.53;;;4.72;;
6388;SDS011;3227;42.654;23.360;2023-07-31T14:30:03;12.55;;;4.50;;
6388;SDS011;3227;42.654;23.360;2023-07-31T14:32:31;9.68;;;4.80;;
6388;SDS011;3227;42.654;23.360;2023-07-31T14:35:03;8.38;;;5.18;;
6388;SDS011;3227;42.654;23.360;2023-07-31T14:37:36;7.88;;;4.93;;
6388;SDS011;3227;42.654;23.360;2023-07-31T14:40:04;7.65;;;5.05;;
6388;SDS011;3227;42.654;23.360;2023-07-31T14:42:31;7.35;;;4.90;;
6388;SDS011;3227;42.654;23.360;2023-07-31T14:44:59;7.40;;;4.50;;
6388;SDS011;3227;42.654;23.360;2023-07-31T14:47:26;7.13;;;4.57;;
6388;SDS011;3227;42.654;23.360;2023-07-31T14:49:53;7.50;;;4.75;;
6388;SDS011;3227;42.654;23.360;2023-07-31T14:52:19;8.32;;;4.50;;
6388;SDS011;3227;42.654;23.360;2023-07-31T14:57:34;6.97;;;4.30;;
6388;SDS011;3227;42.654;23.360;2023-07-31T15:00:03;7.65;;;4.68;;